createdAt,value
2022-12-24T00:01:01.404Z,3.73
2022-12-24T00:03:28.121Z,3.74
2022-12-24T00:05:54.785Z,3.76
2022-12-24T00:08:21.509Z,3.71
2022-12-24T00:10:52.660Z,3.70
2022-12-24T00:13:20.174Z,3.70
2022-12-24T00:15:47.169Z,3.72
2022-12-24T00:18:13.766Z,3.73
2022-12-24T00:20:40.599Z,3.73
2022-12-24T00:23:07.155Z,3.74
2022-12-24T00:25:33.849Z,3.75
2022-12-24T00:28:00.462Z,3.75
2022-12-24T00:30:27.224Z,3.78
2022-12-24T00:32:54.719Z,3.79
2022-12-24T00:35:21.975Z,3.80
2022-12-24T00:37:49.372Z,3.81
2022-12-24T00:40:16.920Z,3.81
2022-12-24T00:42:43.903Z,3.82
2022-12-24T00:45:12.149Z,3.83
2022-12-24T00:47:38.789Z,3.84
2022-12-24T00:50:06.265Z,3.85
2022-12-24T00:52:32.950Z,3.84
2022-12-24T00:54:59.530Z,3.83
2022-12-24T00:57:26.108Z,3.80
2022-12-24T00:59:52.662Z,3.79
2022-12-24T01:02:19.659Z,3.77
2022-12-24T01:05:05.006Z,3.77
2022-12-24T01:07:32.201Z,3.76
2022-12-24T01:09:58.871Z,3.78
2022-12-24T01:12:25.726Z,3.78
2022-12-24T01:14:52.299Z,3.79
2022-12-24T01:17:18.942Z,3.80
2022-12-24T01:19:45.522Z,3.80
2022-12-24T01:22:12.092Z,3.79
2022-12-24T01:24:41.318Z,3.80
2022-12-24T01:27:08.106Z,3.82
2022-12-24T01:29:34.962Z,3.83
2022-12-24T01:32:01.551Z,3.84
2022-12-24T01:34:28.155Z,3.83
2022-12-24T01:36:54.740Z,3.83
2022-12-24T01:39:21.400Z,3.84
2022-12-24T01:42:06.524Z,3.84
2022-12-24T01:44:36.982Z,3.84
2022-12-24T01:47:20.720Z,3.82
2022-12-24T01:49:53.890Z,3.82
2022-12-24T01:52:24.657Z,3.74
2022-12-24T01:54:57.616Z,3.75
2022-12-24T01:57:30.012Z,3.76
2022-12-24T02:00:00.144Z,3.74
2022-12-24T02:02:28.334Z,3.73
2022-12-24T02:04:59.060Z,3.74
2022-12-24T02:07:25.931Z,3.73
2022-12-24T02:09:57.252Z,3.73
2022-12-24T02:12:25.253Z,3.81
2022-12-24T02:14:53.182Z,3.80
2022-12-24T02:17:32.305Z,3.82
2022-12-24T02:20:27.752Z,3.84
2022-12-24T02:23:19.918Z,3.88
2022-12-24T02:26:23.824Z,3.99
2022-12-24T02:29:03.611Z,4.19
2022-12-24T02:31:41.059Z,4.25
2022-12-24T02:34:16.705Z,4.21
2022-12-24T02:37:09.714Z,4.16
2022-12-24T02:39:45.683Z,4.11
2022-12-24T02:42:15.883Z,4.11
2022-12-24T02:44:50.562Z,4.12
2022-12-24T02:47:18.160Z,4.13
2022-12-24T02:49:47.420Z,4.13
2022-12-24T02:52:48.041Z,4.12
2022-12-24T02:55:29.317Z,4.10
2022-12-24T02:58:04.658Z,4.15
2022-12-24T03:01:16.224Z,4.13
2022-12-24T03:04:15.937Z,4.12
2022-12-24T03:06:58.579Z,4.12
2022-12-24T03:09:32.811Z,4.14
2022-12-24T03:12:06.236Z,4.20
2022-12-24T03:14:34.847Z,4.27
2022-12-24T03:17:03.166Z,4.23
2022-12-24T03:19:31.015Z,4.18
2022-12-24T03:22:02.408Z,4.15
2022-12-24T03:24:29.031Z,4.12
2022-12-24T03:26:56.699Z,4.08
2022-12-24T03:29:23.451Z,4.07
2022-12-24T03:31:58.762Z,4.04
2022-12-24T03:34:25.420Z,4.02
2022-12-24T03:36:52.236Z,4.04
2022-12-24T03:39:19.000Z,4.01
2022-12-24T03:41:45.634Z,4.02
2022-12-24T03:44:12.190Z,4.03
2022-12-24T03:46:38.732Z,4.05
2022-12-24T03:49:05.312Z,4.07
2022-12-24T03:51:33.314Z,4.11
2022-12-24T03:54:00.259Z,4.19
2022-12-24T03:56:27.105Z,4.24
2022-12-24T03:58:53.666Z,4.28
2022-12-24T04:01:20.375Z,4.31
2022-12-24T04:03:47.084Z,4.29
2022-12-24T04:06:15.993Z,4.29
2022-12-24T04:08:42.660Z,4.32
2022-12-24T04:11:15.847Z,4.33
2022-12-24T04:13:43.043Z,4.31
2022-12-24T04:16:12.831Z,4.34
2022-12-24T04:18:40.407Z,4.39
2022-12-24T04:21:08.149Z,4.51
2022-12-24T04:23:36.426Z,4.60
2022-12-24T04:26:05.373Z,4.87
2022-12-24T04:28:33.330Z,5.01
2022-12-24T04:31:02.689Z,5.10
2022-12-24T04:33:29.534Z,5.22
2022-12-24T04:36:00.017Z,5.33
2022-12-24T04:38:27.082Z,5.43
2022-12-24T04:41:23.034Z,5.47
2022-12-24T04:43:51.803Z,5.50
2022-12-24T04:46:21.419Z,5.56
2022-12-24T04:48:49.724Z,5.58
2022-12-24T04:51:17.209Z,5.59
2022-12-24T04:53:44.410Z,5.59
2022-12-24T04:56:19.949Z,5.62
2022-12-24T04:58:46.717Z,5.59
2022-12-24T05:01:16.330Z,5.56
2022-12-24T05:03:42.938Z,5.56
2022-12-24T05:06:12.703Z,5.50
2022-12-24T05:08:39.584Z,5.44
2022-12-24T05:11:07.138Z,5.36
2022-12-24T05:13:42.305Z,5.27
2022-12-24T05:16:13.351Z,5.17
2022-12-24T05:18:40.519Z,5.12
2022-12-24T05:21:15.104Z,5.08
2022-12-24T05:24:00.473Z,5.08
2022-12-24T05:26:48.997Z,5.03
2022-12-24T05:29:15.994Z,4.97
2022-12-24T05:31:45.008Z,4.96
2022-12-24T05:34:13.615Z,4.91
2022-12-24T05:36:40.579Z,4.89
2022-12-24T05:39:13.349Z,4.91
2022-12-24T05:41:40.369Z,4.91
2022-12-24T05:44:06.950Z,4.93
2022-12-24T05:46:33.600Z,4.94
2022-12-24T05:49:00.175Z,4.93
2022-12-24T05:51:26.726Z,4.97
2022-12-24T05:53:53.316Z,5.00
2022-12-24T05:56:23.022Z,4.93
2022-12-24T05:58:52.191Z,4.84
2022-12-24T06:01:19.707Z,4.82
2022-12-24T06:03:46.592Z,4.75
2022-12-24T06:06:19.213Z,4.70
2022-12-24T06:08:45.973Z,4.68
2022-12-24T06:11:14.705Z,4.60
2022-12-24T06:13:42.386Z,4.59
2022-12-24T06:16:12.670Z,4.65
2022-12-24T06:18:39.351Z,4.66
2022-12-24T06:21:06.926Z,4.68
2022-12-24T06:23:37.651Z,4.69
2022-12-24T06:26:07.083Z,4.67
2022-12-24T06:28:36.710Z,4.66
2022-12-24T06:31:05.138Z,4.62
2022-12-24T06:33:33.028Z,4.61
2022-12-24T06:35:59.775Z,4.66
2022-12-24T06:38:26.378Z,4.73
2022-12-24T06:40:53.014Z,4.87
2022-12-24T06:43:20.909Z,4.94
2022-12-24T06:45:48.501Z,4.90
2022-12-24T06:48:15.797Z,4.92
2022-12-24T06:50:43.283Z,4.94
2022-12-24T06:53:11.041Z,4.93
2022-12-24T06:55:38.134Z,4.94
2022-12-24T06:58:04.931Z,4.97
2022-12-24T07:00:31.892Z,4.96
2022-12-24T07:02:58.666Z,4.94
2022-12-24T07:05:25.846Z,4.96
2022-12-24T07:07:52.601Z,5.00
2022-12-24T07:10:20.517Z,4.97
2022-12-24T07:12:47.529Z,5.00
2022-12-24T07:15:14.713Z,4.97
2022-12-24T07:17:41.578Z,4.95
2022-12-24T07:20:11.642Z,4.97
2022-12-24T07:22:38.216Z,4.99
2022-12-24T07:25:05.292Z,5.01
2022-12-24T07:27:31.922Z,5.06
2022-12-24T07:29:58.483Z,5.06
2022-12-24T07:32:25.034Z,5.08
2022-12-24T07:34:51.663Z,5.11
2022-12-24T07:37:18.200Z,5.11
2022-12-24T07:39:45.334Z,5.13
2022-12-24T07:42:11.942Z,5.17
2022-12-24T07:44:38.530Z,5.24
2022-12-24T07:47:05.153Z,5.29
2022-12-24T07:49:31.862Z,5.34
2022-12-24T07:51:58.433Z,5.39
2022-12-24T07:54:25.030Z,5.42
2022-12-24T07:56:51.591Z,5.44
2022-12-24T07:59:18.157Z,5.47
2022-12-24T08:01:45.689Z,5.49
2022-12-24T08:04:12.533Z,5.55
2022-12-24T08:06:39.386Z,5.57
2022-12-24T08:09:06.273Z,5.59
2022-12-24T08:11:32.902Z,5.62
2022-12-24T08:13:59.508Z,5.64
2022-12-24T08:16:26.157Z,5.69
2022-12-24T08:18:52.837Z,5.71
2022-12-24T08:21:19.391Z,5.75
2022-12-24T08:23:46.952Z,5.80
2022-12-24T08:26:14.019Z,5.85
2022-12-24T08:28:40.694Z,5.92
2022-12-24T08:31:07.517Z,6.02
2022-12-24T08:33:34.249Z,6.11
2022-12-24T08:36:02.050Z,6.34
2022-12-24T08:38:29.136Z,6.50
2022-12-24T08:40:56.840Z,6.58
2022-12-24T08:43:23.540Z,6.71
2022-12-24T08:45:50.444Z,6.82
2022-12-24T08:48:17.389Z,6.90
2022-12-24T08:50:44.201Z,6.94
2022-12-24T08:53:11.277Z,6.99
2022-12-24T08:55:37.882Z,7.07
2022-12-24T08:58:04.468Z,7.10
2022-12-24T09:00:31.375Z,7.17
2022-12-24T09:02:58.419Z,7.24
2022-12-24T09:05:26.097Z,7.30
2022-12-24T09:07:53.232Z,7.35
2022-12-24T09:10:19.869Z,7.38
2022-12-24T09:12:47.961Z,7.40
2022-12-24T09:15:14.871Z,7.42
2022-12-24T09:17:41.598Z,7.43
2022-12-24T09:20:09.459Z,7.47
2022-12-24T09:22:37.972Z,7.50
2022-12-24T09:25:06.340Z,7.54
2022-12-24T09:27:33.363Z,7.59
2022-12-24T09:29:59.930Z,7.65
2022-12-24T09:32:26.523Z,7.70
2022-12-24T09:34:53.937Z,7.75
2022-12-24T09:37:20.535Z,7.81
2022-12-24T09:39:47.279Z,7.87
2022-12-24T09:42:16.694Z,7.97
2022-12-24T09:45:08.426Z,8.10
2022-12-24T09:47:39.845Z,8.18
2022-12-24T09:50:36.911Z,8.29
2022-12-24T09:53:12.932Z,8.39
2022-12-24T09:56:00.544Z,8.50
2022-12-24T09:58:37.548Z,8.57
2022-12-24T10:01:04.476Z,8.64
2022-12-24T10:03:32.049Z,8.69
2022-12-24T10:06:06.536Z,8.76
2022-12-24T10:08:43.544Z,8.80
2022-12-24T10:11:21.928Z,8.85
2022-12-24T10:14:01.215Z,8.91
2022-12-24T10:16:39.560Z,8.96
2022-12-24T10:19:31.735Z,9.05
2022-12-24T10:22:29.911Z,9.14
2022-12-24T10:25:22.317Z,9.25
2022-12-24T10:27:48.903Z,9.37
2022-12-24T10:30:22.104Z,9.47
2022-12-24T10:32:51.055Z,9.54
2022-12-24T10:35:25.710Z,9.59
2022-12-24T10:37:52.859Z,9.64
2022-12-24T10:40:28.563Z,9.70
2022-12-24T10:42:55.284Z,9.74
2022-12-24T10:45:26.078Z,9.80
2022-12-24T10:48:01.927Z,9.89
2022-12-24T10:50:35.406Z,9.98
2022-12-24T10:53:32.348Z,10.11
2022-12-24T10:56:08.103Z,10.20
2022-12-24T10:58:35.653Z,10.28
2022-12-24T11:01:02.691Z,10.41
2022-12-24T11:03:36.951Z,10.64
2022-12-24T11:06:18.455Z,11.10
2022-12-24T11:08:45.776Z,11.40
2022-12-24T11:11:20.674Z,11.46
2022-12-24T11:13:50.025Z,11.53
2022-12-24T11:16:19.396Z,11.58
2022-12-24T11:18:51.626Z,11.59
2022-12-24T11:21:21.085Z,11.77
2022-12-24T11:23:56.675Z,12.15
2022-12-24T11:26:25.835Z,12.74
2022-12-24T11:29:25.665Z,13.41
2022-12-24T11:31:53.169Z,13.28
2022-12-24T11:34:22.449Z,13.15
2022-12-24T11:36:51.200Z,13.05
2022-12-24T11:39:25.815Z,12.95
2022-12-24T11:41:53.552Z,12.87
2022-12-24T11:44:31.522Z,12.81
2022-12-24T11:46:58.199Z,12.78
2022-12-24T11:49:26.332Z,12.74
2022-12-24T11:52:11.221Z,12.67
2022-12-24T11:54:56.621Z,12.57
2022-12-24T11:57:31.493Z,12.46
2022-12-24T11:59:58.270Z,12.34
2022-12-24T12:02:39.836Z,12.24
2022-12-24T12:05:18.682Z,12.16
2022-12-24T12:07:50.396Z,12.20
2022-12-24T12:10:28.645Z,12.25
2022-12-24T12:13:03.544Z,12.21
2022-12-24T12:15:35.908Z,12.16
2022-12-24T12:18:16.204Z,12.10
2022-12-24T12:20:51.840Z,12.03
2022-12-24T12:23:30.111Z,11.95
2022-12-24T12:26:24.267Z,11.90
2022-12-24T12:29:18.827Z,11.86
2022-12-24T12:31:50.810Z,11.82
2022-12-24T12:34:26.036Z,11.77
2022-12-24T12:36:57.557Z,11.73
2022-12-24T12:39:24.613Z,11.74
2022-12-24T12:42:10.055Z,11.74
2022-12-24T12:44:41.347Z,11.71
2022-12-24T12:47:38.132Z,11.69
2022-12-24T12:50:33.416Z,11.67
2022-12-24T12:53:02.858Z,11.69
2022-12-24T12:55:29.365Z,11.69
2022-12-24T12:58:05.643Z,11.69
2022-12-24T13:00:38.744Z,11.70
2022-12-24T13:03:30.210Z,11.71
2022-12-24T13:06:44.725Z,11.76
2022-12-24T13:09:17.237Z,11.84
2022-12-24T13:11:58.788Z,11.98
2022-12-24T13:14:43.844Z,12.08
2022-12-24T13:17:34.008Z,12.15
2022-12-24T13:20:15.922Z,12.28
2022-12-24T13:22:57.744Z,12.58
2022-12-24T13:25:33.144Z,12.81
2022-12-24T13:28:20.753Z,12.98
2022-12-24T13:30:52.677Z,13.40
2022-12-24T13:33:37.385Z,13.87
2022-12-24T13:36:14.119Z,14.35
2022-12-24T13:38:54.640Z,14.47
2022-12-24T13:41:38.916Z,14.40
2022-12-24T13:44:23.577Z,14.35
2022-12-24T13:47:18.624Z,14.31
2022-12-24T13:49:54.321Z,14.15
2022-12-24T13:52:42.573Z,14.37
2022-12-24T13:55:15.676Z,14.63
2022-12-24T13:58:01.045Z,14.82
2022-12-24T14:00:32.532Z,14.94
2022-12-24T14:03:06.022Z,14.93
2022-12-24T14:05:40.354Z,15.07
2022-12-24T14:08:11.767Z,15.09
2022-12-24T14:10:46.020Z,14.82
2022-12-24T14:13:40.623Z,14.56
2022-12-24T14:16:14.909Z,14.31
2022-12-24T14:18:50.098Z,14.16
2022-12-24T14:21:26.830Z,14.12
2022-12-24T14:23:59.933Z,14.10
2022-12-24T14:26:45.364Z,13.87
2022-12-24T14:29:26.628Z,13.53
2022-12-24T14:31:55.442Z,13.24
2022-12-24T14:34:22.830Z,13.06
2022-12-24T14:36:51.905Z,12.88
2022-12-24T14:39:21.607Z,12.73
2022-12-24T14:42:12.989Z,12.56
2022-12-24T14:44:54.536Z,12.39
2022-12-24T14:47:30.958Z,12.21
2022-12-24T14:50:03.990Z,11.99
2022-12-24T14:55:32.257Z,11.72
2022-12-24T14:58:24.022Z,11.53
2022-12-24T15:00:52.060Z,11.47
2022-12-24T15:03:21.650Z,11.35
2022-12-24T15:06:09.245Z,11.25
2022-12-24T15:08:48.642Z,11.15
2022-12-24T15:11:20.009Z,11.05
2022-12-24T15:13:53.914Z,10.96
2022-12-24T15:16:41.038Z,10.86
2022-12-24T15:19:21.605Z,10.76
2022-12-24T15:21:48.318Z,10.66
2022-12-24T15:24:44.491Z,10.58
2022-12-24T15:27:32.136Z,10.53
2022-12-24T15:29:59.163Z,10.47
2022-12-24T15:32:25.835Z,10.46
2022-12-24T15:34:54.927Z,10.43
2022-12-24T15:37:37.767Z,10.38
2022-12-24T15:40:07.899Z,10.32
2022-12-24T15:42:36.485Z,10.30
2022-12-24T15:45:05.574Z,10.30
2022-12-24T15:47:38.908Z,10.25
2022-12-24T15:50:18.680Z,10.14
2022-12-24T15:52:46.646Z,10.14
2022-12-24T15:55:37.771Z,10.04
2022-12-24T15:58:25.962Z,10.00
2022-12-24T16:01:09.197Z,10.03
2022-12-24T16:03:39.181Z,9.92
2022-12-24T16:06:11.653Z,9.91
2022-12-24T16:08:40.162Z,9.82
2022-12-24T16:11:12.895Z,9.69
2022-12-24T16:13:58.179Z,9.64
2022-12-24T16:16:39.911Z,9.55
2022-12-24T16:19:15.335Z,9.47
2022-12-24T16:21:43.720Z,9.32
2022-12-24T16:24:13.140Z,9.26
2022-12-24T16:26:40.345Z,9.23
2022-12-24T16:29:07.367Z,9.21
2022-12-24T16:31:39.151Z,9.18
2022-12-24T16:34:06.129Z,9.20
2022-12-24T16:36:32.993Z,9.20
2022-12-24T16:39:18.137Z,9.14
2022-12-24T16:42:03.455Z,9.07
2022-12-24T16:44:30.105Z,9.05
2022-12-24T16:47:00.359Z,9.04
2022-12-24T16:49:27.464Z,8.96
2022-12-24T16:51:54.045Z,8.92
2022-12-24T16:54:20.737Z,8.83
2022-12-24T16:56:47.319Z,8.75
2022-12-24T16:59:19.044Z,8.69
2022-12-24T17:01:46.711Z,8.63
2022-12-24T17:04:14.482Z,8.55
2022-12-24T17:06:41.241Z,8.52
2022-12-24T17:09:10.088Z,8.41
2022-12-24T17:11:37.131Z,8.31
2022-12-24T17:14:08.002Z,8.22
2022-12-24T17:16:37.519Z,8.10
2022-12-24T17:19:05.066Z,8.03
2022-12-24T17:21:31.866Z,7.97
2022-12-24T17:23:58.702Z,7.89
2022-12-24T17:26:25.283Z,7.79
2022-12-24T17:28:56.827Z,7.72
2022-12-24T17:31:24.650Z,7.68
2022-12-24T17:33:53.019Z,7.60
2022-12-24T17:36:20.710Z,7.49
2022-12-24T17:38:47.590Z,7.35
2022-12-24T17:41:17.487Z,7.19
2022-12-24T17:43:44.443Z,7.01
2022-12-24T17:46:17.027Z,6.89
2022-12-24T17:48:44.455Z,6.77
2022-12-24T17:51:13.431Z,6.68
2022-12-24T17:53:41.718Z,6.63
2022-12-24T17:56:12.336Z,6.57
2022-12-24T17:58:43.172Z,6.54
2022-12-24T18:01:15.768Z,6.43
2022-12-24T18:03:42.757Z,6.32
2022-12-24T18:06:11.058Z,6.28
2022-12-24T18:08:39.224Z,6.22
2022-12-24T18:11:18.044Z,6.16
2022-12-24T18:13:45.724Z,6.01
2022-12-24T18:16:35.945Z,5.81
2022-12-24T18:19:04.601Z,5.73
2022-12-24T18:21:32.694Z,5.69
2022-12-24T18:23:59.871Z,5.59
2022-12-24T18:26:28.968Z,5.54
2022-12-24T18:28:57.037Z,5.52
2022-12-24T18:31:24.528Z,5.44
2022-12-24T18:33:53.006Z,5.44
2022-12-24T18:36:20.467Z,5.43
2022-12-24T18:38:47.548Z,5.38
2022-12-24T18:41:18.517Z,5.28
2022-12-24T18:43:45.400Z,5.18
2022-12-24T18:46:17.618Z,4.99
2022-12-24T18:48:46.885Z,4.88
2022-12-24T18:51:14.187Z,4.73
2022-12-24T18:53:40.899Z,4.76
2022-12-24T18:56:13.731Z,4.76
2022-12-24T18:58:42.399Z,4.68
2022-12-24T19:01:29.627Z,4.64
2022-12-24T19:03:56.628Z,4.67
2022-12-24T19:06:24.225Z,4.61
2022-12-24T19:09:00.372Z,4.67
2022-12-24T19:11:30.461Z,4.69
2022-12-24T19:13:58.281Z,4.57
2022-12-24T19:16:25.466Z,4.42
2022-12-24T19:18:52.081Z,4.32
2022-12-24T19:21:19.232Z,4.25
2022-12-24T19:23:46.928Z,4.22
2022-12-24T19:26:15.206Z,4.10
2022-12-24T19:28:42.733Z,4.02
2022-12-24T19:31:13.014Z,3.97
2022-12-24T19:33:45.185Z,3.88
2022-12-24T19:36:15.196Z,3.80
2022-12-24T19:38:41.951Z,3.83
2022-12-24T19:41:16.409Z,3.88
2022-12-24T19:43:45.081Z,3.83
2022-12-24T19:46:15.639Z,3.86
2022-12-24T19:48:43.073Z,3.88
2022-12-24T19:51:12.244Z,3.84
2022-12-24T19:53:39.769Z,3.82
2022-12-24T19:56:07.290Z,3.75
2022-12-24T19:58:34.316Z,3.66
2022-12-24T20:01:14.507Z,3.55
2022-12-24T20:03:41.711Z,3.51
2022-12-24T20:06:11.307Z,3.46
2022-12-24T20:08:38.527Z,3.39
2022-12-24T20:11:09.629Z,3.40
2022-12-24T20:13:37.746Z,3.37
2022-12-24T20:16:09.896Z,3.34
2022-12-24T20:18:36.730Z,3.34
2022-12-24T20:21:06.791Z,3.35
2022-12-24T20:23:33.488Z,3.27
2022-12-24T20:26:02.241Z,3.22
2022-12-24T20:28:31.830Z,3.31
2022-12-24T20:30:58.512Z,3.24
2022-12-24T20:33:26.038Z,3.17
2022-12-24T20:35:52.869Z,3.06
2022-12-24T20:38:19.481Z,2.98
2022-12-24T20:40:46.693Z,2.94
2022-12-24T20:43:13.796Z,2.92
2022-12-24T20:45:41.045Z,2.89
2022-12-24T20:48:08.058Z,2.90
2022-12-24T20:50:34.661Z,2.82
2022-12-24T20:53:01.297Z,2.74
2022-12-24T20:55:27.926Z,2.76
2022-12-24T20:57:54.503Z,2.80
2022-12-24T21:00:21.536Z,2.74
2022-12-24T21:02:48.305Z,2.76
2022-12-24T21:05:15.378Z,2.70
2022-12-24T21:07:43.572Z,2.65
2022-12-24T21:10:12.356Z,2.61
2022-12-24T21:12:49.187Z,2.55
2022-12-24T21:15:21.981Z,2.49
2022-12-24T21:17:49.008Z,2.51
2022-12-24T21:20:15.848Z,2.50
2022-12-24T21:22:42.722Z,2.50
2022-12-24T21:25:10.598Z,2.45
2022-12-24T21:27:37.305Z,2.35
2022-12-24T21:30:09.062Z,2.34
2022-12-24T21:32:36.406Z,2.32
2022-12-24T21:35:04.441Z,2.31
2022-12-24T21:37:31.126Z,2.25
2022-12-24T21:39:57.679Z,2.20
2022-12-24T21:42:24.567Z,2.12
2022-12-24T21:44:51.148Z,2.06
2022-12-24T21:47:17.833Z,1.94
2022-12-24T21:50:02.842Z,1.91
2022-12-24T21:52:29.335Z,1.84
2022-12-24T21:54:56.226Z,1.76
2022-12-24T21:57:41.661Z,1.74
2022-12-24T22:00:28.997Z,1.66
2022-12-24T22:02:57.642Z,1.65
2022-12-24T22:05:26.180Z,1.67
2022-12-24T22:08:12.521Z,1.61
2022-12-24T22:10:57.900Z,1.61
2022-12-24T22:13:25.465Z,1.59
2022-12-24T22:15:54.065Z,1.59
2022-12-24T22:18:23.695Z,1.56
2022-12-24T22:20:51.145Z,1.52
2022-12-24T22:23:18.981Z,1.46
2022-12-24T22:25:46.135Z,1.43
2022-12-24T22:28:12.808Z,1.40
2022-12-24T22:30:41.265Z,1.35
2022-12-24T22:33:08.911Z,1.31
2022-12-24T22:35:39.775Z,1.27
2022-12-24T22:38:09.854Z,1.24
2022-12-24T22:40:39.526Z,1.27
2022-12-24T22:43:06.124Z,1.27
2022-12-24T22:45:32.793Z,1.34
2022-12-24T22:47:59.372Z,1.36
2022-12-24T22:50:26.101Z,1.38
2022-12-24T22:52:53.944Z,1.38
2022-12-24T22:55:20.850Z,1.36
2022-12-24T22:57:47.683Z,1.31
2022-12-24T23:00:41.848Z,1.33
2022-12-24T23:03:09.574Z,1.42
2022-12-24T23:05:37.081Z,1.42
2022-12-24T23:08:04.747Z,1.49
2022-12-24T23:10:31.648Z,1.55
2022-12-24T23:13:17.393Z,1.57
2022-12-24T23:15:43.984Z,1.55
2022-12-24T23:18:11.412Z,1.65
2022-12-24T23:20:40.860Z,1.78
2022-12-24T23:23:07.439Z,1.86
2022-12-24T23:25:34.186Z,1.89
2022-12-24T23:28:00.775Z,1.98
2022-12-24T23:30:27.359Z,1.99
2022-12-24T23:32:54.936Z,2.00
2022-12-24T23:35:21.637Z,2.01
2022-12-24T23:37:48.211Z,1.95
2022-12-24T23:40:14.955Z,1.93
2022-12-24T23:42:41.671Z,1.93
2022-12-24T23:45:08.882Z,1.94
2022-12-24T23:47:35.792Z,1.91
2022-12-24T23:50:02.403Z,1.91
2022-12-24T23:52:28.982Z,1.92
2022-12-24T23:54:55.535Z,1.92
2022-12-24T23:57:22.103Z,1.94
2022-12-24T23:59:48.748Z,1.96
